sensor_id;sensor_type;location;lat;lon;timestamp;P1;durP1;ratioP1;P2;durP2;ratioP2
13477;SDS011;12598;62.382;17.344;2023-08-01T00:01:00;1.13;;;0.88;;
13477;SDS011;12598;62.382;17.344;2023-08-01T00:02:02;1.55;;;1.27;;
13477;SDS011;12598;62.382;17.344;2023-08-01T00:03:05;1.80;;;1.42;;
13477;SDS011;12598;62.382;17.344;2023-08-01T00:04:07;1.63;;;1.13;;
13477;SDS011;12598;62.382;17.344;2023-08-01T00:05:09;1.30;;;1.05;;
13477;SDS011;12598;62.382;17.344;2023-08-01T00:06:11;1.73;;;1.27;;
13477;SDS011;12598;62.382;17.344;2023-08-01T00:07:13;1.52;;;0.98;;
13477;SDS011;12598;62.382;17.344;2023-08-01T00:08:15;1.52;;;1.40;;
13477;SDS011;12598;62.382;17.344;2023-08-01T00:09:17;1.77;;;0.93;;
13477;SDS011;12598;62.382;17.344;2023-08-01T00:10:19;2.10;;;1.20;;
13477;SDS011;12598;62.382;17.344;2023-08-01T00:11:21;0.85;;;0.70;;
13477;SDS011;12598;62.382;17.344;2023-08-01T00:12:23;1.10;;;1.00;;
13477;SDS011;12598;62.382;17.344;2023-08-01T00:13:25;1.40;;;1.02;;
13477;SDS011;12598;62.382;17.344;2023-08-01T00:14:27;1.10;;;1.00;;
13477;SDS011;12598;62.382;17.344;2023-08-01T00:15:29;1.98;;;1.10;;
13477;SDS011;12598;62.382;17.344;2023-08-01T00:16:31;1.50;;;1.20;;
13477;SDS011;12598;62.382;17.344;2023-08-01T00:17:34;1.60;;;1.30;;
13477;SDS011;12598;62.382;17.344;2023-08-01T00:18:36;1.08;;;0.98;;
13477;SDS011;12598;62.382;17.344;2023-08-01T00:19:38;1.65;;;1.55;;
13477;SDS011;12598;62.382;17.344;2023-08-01T00:20:40;1.33;;;1.23;;
13477;SDS011;12598;62.382;17.344;2023-08-01T00:21:42;1.17;;;1.08;;
13477;SDS011;12598;62.382;17.344;2023-08-01T00:22:44;2.03;;;1.23;;
13477;SDS011;12598;62.382;17.344;2023-08-01T00:23:46;1.30;;;1.20;;
13477;SDS011;12598;62.382;17.344;2023-08-01T00:24:48;1.23;;;1.10;;
13477;SDS011;12598;62.382;17.344;2023-08-01T00:25:50;1.40;;;1.08;;
13477;SDS011;12598;62.382;17.344;2023-08-01T00:26:53;1.52;;;1.20;;
13477;SDS011;12598;62.382;17.344;2023-08-01T00:27:57;1.45;;;1.17;;
13477;SDS011;12598;62.382;17.344;2023-08-01T00:28:59;1.30;;;1.10;;
13477;SDS011;12598;62.382;17.344;2023-08-01T00:30:02;1.40;;;1.25;;
13477;SDS011;12598;62.382;17.344;2023-08-01T00:31:05;2.00;;;1.00;;
13477;SDS011;12598;62.382;17.344;2023-08-01T00:32:10;1.15;;;1.02;;
13477;SDS011;12598;62.382;17.344;2023-08-01T00:33:12;1.08;;;0.95;;
13477;SDS011;12598;62.382;17.344;2023-08-01T00:34:15;1.45;;;1.00;;
13477;SDS011;12598;62.382;17.344;2023-08-01T00:35:17;1.40;;;1.20;;
13477;SDS011;12598;62.382;17.344;2023-08-01T00:36:19;1.23;;;1.05;;
13477;SDS011;12598;62.382;17.344;2023-08-01T00:37:20;1.23;;;1.13;;
13477;SDS011;12598;62.382;17.344;2023-08-01T00:38:22;0.95;;;0.88;;
13477;SDS011;12598;62.382;17.344;2023-08-01T00:39:24;1.10;;;1.00;;
13477;SDS011;12598;62.382;17.344;2023-08-01T00:40:30;1.20;;;1.10;;
13477;SDS011;12598;62.382;17.344;2023-08-01T00:41:33;1.67;;;1.00;;
13477;SDS011;12598;62.382;17.344;2023-08-01T00:42:38;1.10;;;1.00;;
13477;SDS011;12598;62.382;17.344;2023-08-01T00:43:40;1.60;;;1.10;;
13477;SDS011;12598;62.382;17.344;2023-08-01T00:44:42;1.30;;;1.00;;
13477;SDS011;12598;62.382;17.344;2023-08-01T00:45:44;1.20;;;1.02;;
13477;SDS011;12598;62.382;17.344;2023-08-01T00:46:47;1.00;;;0.80;;
13477;SDS011;12598;62.382;17.344;2023-08-01T00:47:55;1.38;;;1.00;;
13477;SDS011;12598;62.382;17.344;2023-08-01T00:48:57;3.05;;;1.00;;
13477;SDS011;12598;62.382;17.344;2023-08-01T00:50:01;1.15;;;1.05;;
13477;SDS011;12598;62.382;17.344;2023-08-01T00:51:04;1.20;;;1.10;;
13477;SDS011;12598;62.382;17.344;2023-08-01T00:52:08;1.30;;;0.95;;
13477;SDS011;12598;62.382;17.344;2023-08-01T00:53:11;1.23;;;1.13;;
13477;SDS011;12598;62.382;17.344;2023-08-01T00:54:13;1.42;;;1.30;;
13477;SDS011;12598;62.382;17.344;2023-08-01T00:55:16;1.63;;;1.17;;
13477;SDS011;12598;62.382;17.344;2023-08-01T00:56:18;1.38;;;1.10;;
13477;SDS011;12598;62.382;17.344;2023-08-01T00:57:21;1.42;;;1.13;;
13477;SDS011;12598;62.382;17.344;2023-08-01T00:58:23;1.65;;;1.23;;
13477;SDS011;12598;62.382;17.344;2023-08-01T00:59:25;1.65;;;0.90;;
13477;SDS011;12598;62.382;17.344;2023-08-01T01:00:27;1.20;;;1.08;;
13477;SDS011;12598;62.382;17.344;2023-08-01T01:01:29;3.35;;;1.58;;
13477;SDS011;12598;62.382;17.344;2023-08-01T01:02:31;2.05;;;0.98;;
13477;SDS011;12598;62.382;17.344;2023-08-01T01:03:33;1.25;;;1.05;;
13477;SDS011;12598;62.382;17.344;2023-08-01T01:04:36;3.55;;;1.10;;
13477;SDS011;12598;62.382;17.344;2023-08-01T01:05:40;2.50;;;1.30;;
13477;SDS011;12598;62.382;17.344;2023-08-01T01:07:00;1.60;;;1.20;;
13477;SDS011;12598;62.382;17.344;2023-08-01T01:08:05;1.30;;;1.17;;
13477;SDS011;12598;62.382;17.344;2023-08-01T01:09:14;1.13;;;0.98;;
13477;SDS011;12598;62.382;17.344;2023-08-01T01:10:19;1.25;;;1.15;;
13477;SDS011;12598;62.382;17.344;2023-08-01T01:11:21;1.27;;;1.13;;
13477;SDS011;12598;62.382;17.344;2023-08-01T01:12:23;1.55;;;1.17;;
13477;SDS011;12598;62.382;17.344;2023-08-01T01:13:25;1.38;;;1.23;;
13477;SDS011;12598;62.382;17.344;2023-08-01T01:14:27;1.02;;;0.93;;
13477;SDS011;12598;62.382;17.344;2023-08-01T01:15:30;1.23;;;1.00;;
13477;SDS011;12598;62.382;17.344;2023-08-01T01:16:32;1.52;;;1.10;;
13477;SDS011;12598;62.382;17.344;2023-08-01T01:17:34;1.02;;;0.82;;
13477;SDS011;12598;62.382;17.344;2023-08-01T01:18:36;1.00;;;1.00;;
13477;SDS011;12598;62.382;17.344;2023-08-01T01:19:38;1.85;;;1.15;;
13477;SDS011;12598;62.382;17.344;2023-08-01T01:20:40;1.38;;;1.00;;
13477;SDS011;12598;62.382;17.344;2023-08-01T01:21:41;0.88;;;0.60;;
13477;SDS011;12598;62.382;17.344;2023-08-01T01:22:45;1.08;;;0.90;;
13477;SDS011;12598;62.382;17.344;2023-08-01T01:23:47;1.45;;;0.82;;
13477;SDS011;12598;62.382;17.344;2023-08-01T01:24:50;0.88;;;0.70;;
13477;SDS011;12598;62.382;17.344;2023-08-01T01:25:55;0.70;;;0.70;;
13477;SDS011;12598;62.382;17.344;2023-08-01T01:26:59;1.90;;;1.10;;
13477;SDS011;12598;62.382;17.344;2023-08-01T01:28:03;1.15;;;0.93;;
13477;SDS011;12598;62.382;17.344;2023-08-01T01:29:06;2.40;;;0.80;;
13477;SDS011;12598;62.382;17.344;2023-08-01T01:30:10;1.10;;;1.00;;
13477;SDS011;12598;62.382;17.344;2023-08-01T01:31:12;0.98;;;0.85;;
13477;SDS011;12598;62.382;17.344;2023-08-01T01:32:15;0.82;;;0.50;;
13477;SDS011;12598;62.382;17.344;2023-08-01T01:33:18;1.35;;;0.80;;
13477;SDS011;12598;62.382;17.344;2023-08-01T01:34:21;1.10;;;0.90;;
13477;SDS011;12598;62.382;17.344;2023-08-01T01:35:23;0.73;;;0.68;;
13477;SDS011;12598;62.382;17.344;2023-08-01T01:36:25;1.02;;;0.82;;
13477;SDS011;12598;62.382;17.344;2023-08-01T01:37:27;3.90;;;0.80;;
13477;SDS011;12598;62.382;17.344;2023-08-01T01:38:29;1.10;;;0.70;;
13477;SDS011;12598;62.382;17.344;2023-08-01T01:39:32;0.80;;;0.70;;
13477;SDS011;12598;62.382;17.344;2023-08-01T01:40:34;1.65;;;0.70;;
13477;SDS011;12598;62.382;17.344;2023-08-01T01:41:36;1.15;;;0.82;;
13477;SDS011;12598;62.382;17.344;2023-08-01T01:42:38;0.90;;;0.65;;
13477;SDS011;12598;62.382;17.344;2023-08-01T01:43:40;1.42;;;0.80;;
13477;SDS011;12598;62.382;17.344;2023-08-01T01:44:42;1.10;;;0.70;;
13477;SDS011;12598;62.382;17.344;2023-08-01T01:45:44;1.48;;;0.73;;
13477;SDS011;12598;62.382;17.344;2023-08-01T01:46:46;0.70;;;0.65;;
13477;SDS011;12598;62.382;17.344;2023-08-01T01:47:51;1.38;;;0.63;;
13477;SDS011;12598;62.382;17.344;2023-08-01T01:48:53;1.23;;;0.65;;
13477;SDS011;12598;62.382;17.344;2023-08-01T01:49:55;1.65;;;0.65;;
13477;SDS011;12598;62.382;17.344;2023-08-01T01:50:57;1.02;;;0.68;;
13477;SDS011;12598;62.382;17.344;2023-08-01T01:51:59;1.77;;;0.70;;
13477;SDS011;12598;62.382;17.344;2023-08-01T01:53:01;1.05;;;0.57;;
13477;SDS011;12598;62.382;17.344;2023-08-01T01:54:03;0.88;;;0.63;;
13477;SDS011;12598;62.382;17.344;2023-08-01T01:55:05;1.95;;;0.68;;
13477;SDS011;12598;62.382;17.344;2023-08-01T01:56:08;0.60;;;0.60;;
13477;SDS011;12598;62.382;17.344;2023-08-01T01:57:11;1.88;;;0.80;;
13477;SDS011;12598;62.382;17.344;2023-08-01T01:58:13;0.70;;;0.47;;
13477;SDS011;12598;62.382;17.344;2023-08-01T01:59:15;1.42;;;0.60;;
13477;SDS011;12598;62.382;17.344;2023-08-01T02:00:17;1.48;;;0.60;;
13477;SDS011;12598;62.382;17.344;2023-08-01T02:01:18;0.52;;;0.47;;
13477;SDS011;12598;62.382;17.344;2023-08-01T02:02:20;1.38;;;0.70;;
13477;SDS011;12598;62.382;17.344;2023-08-01T02:03:22;1.17;;;0.55;;
13477;SDS011;12598;62.382;17.344;2023-08-01T02:04:24;1.00;;;0.50;;
13477;SDS011;12598;62.382;17.344;2023-08-01T02:05:26;1.13;;;0.50;;
13477;SDS011;12598;62.382;17.344;2023-08-01T02:06:28;1.42;;;0.50;;
13477;SDS011;12598;62.382;17.344;2023-08-01T02:07:30;1.73;;;0.70;;
13477;SDS011;12598;62.382;17.344;2023-08-01T02:08:33;0.93;;;0.50;;
13477;SDS011;12598;62.382;17.344;2023-08-01T02:09:36;0.70;;;0.45;;
13477;SDS011;12598;62.382;17.344;2023-08-01T02:10:38;1.20;;;0.50;;
13477;SDS011;12598;62.382;17.344;2023-08-01T02:11:40;2.10;;;0.60;;
13477;SDS011;12598;62.382;17.344;2023-08-01T02:12:42;0.98;;;0.47;;
13477;SDS011;12598;62.382;17.344;2023-08-01T02:13:44;0.85;;;0.52;;
13477;SDS011;12598;62.382;17.344;2023-08-01T02:14:45;0.63;;;0.43;;
13477;SDS011;12598;62.382;17.344;2023-08-01T02:15:48;2.10;;;0.70;;
13477;SDS011;12598;62.382;17.344;2023-08-01T02:16:49;0.93;;;0.50;;
13477;SDS011;12598;62.382;17.344;2023-08-01T02:17:51;1.10;;;0.50;;
13477;SDS011;12598;62.382;17.344;2023-08-01T02:18:53;0.98;;;0.30;;
13477;SDS011;12598;62.382;17.344;2023-08-01T02:19:55;0.75;;;0.43;;
13477;SDS011;12598;62.382;17.344;2023-08-01T02:20:57;2.00;;;0.40;;
13477;SDS011;12598;62.382;17.344;2023-08-01T02:21:59;0.70;;;0.60;;
13477;SDS011;12598;62.382;17.344;2023-08-01T02:23:01;1.00;;;0.50;;
13477;SDS011;12598;62.382;17.344;2023-08-01T02:24:03;1.42;;;0.60;;
13477;SDS011;12598;62.382;17.344;2023-08-01T02:25:05;1.08;;;0.52;;
13477;SDS011;12598;62.382;17.344;2023-08-01T02:26:07;0.70;;;0.50;;
13477;SDS011;12598;62.382;17.344;2023-08-01T02:27:09;1.08;;;0.60;;
13477;SDS011;12598;62.382;17.344;2023-08-01T02:28:11;1.10;;;0.70;;
13477;SDS011;12598;62.382;17.344;2023-08-01T02:29:14;0.85;;;0.50;;
13477;SDS011;12598;62.382;17.344;2023-08-01T02:30:16;1.40;;;0.52;;
13477;SDS011;12598;62.382;17.344;2023-08-01T02:31:18;0.75;;;0.32;;
13477;SDS011;12598;62.382;17.344;2023-08-01T02:32:21;0.55;;;0.35;;
13477;SDS011;12598;62.382;17.344;2023-08-01T02:33:24;1.20;;;0.50;;
13477;SDS011;12598;62.382;17.344;2023-08-01T02:34:26;2.25;;;0.73;;
13477;SDS011;12598;62.382;17.344;2023-08-01T02:35:28;0.80;;;0.50;;
13477;SDS011;12598;62.382;17.344;2023-08-01T02:36:31;0.63;;;0.40;;
13477;SDS011;12598;62.382;17.344;2023-08-01T02:37:32;0.82;;;0.50;;
13477;SDS011;12598;62.382;17.344;2023-08-01T02:38:34;0.60;;;0.38;;
13477;SDS011;12598;62.382;17.344;2023-08-01T02:39:36;0.60;;;0.60;;
13477;SDS011;12598;62.382;17.344;2023-08-01T02:40:38;0.98;;;0.60;;
13477;SDS011;12598;62.382;17.344;2023-08-01T02:41:40;0.68;;;0.40;;
13477;SDS011;12598;62.382;17.344;2023-08-01T02:42:42;0.77;;;0.60;;
13477;SDS011;12598;62.382;17.344;2023-08-01T02:43:44;0.55;;;0.45;;
13477;SDS011;12598;62.382;17.344;2023-08-01T02:44:46;1.42;;;0.50;;
13477;SDS011;12598;62.382;17.344;2023-08-01T02:45:48;1.15;;;0.60;;
13477;SDS011;12598;62.382;17.344;2023-08-01T02:46:50;0.75;;;0.63;;
13477;SDS011;12598;62.382;17.344;2023-08-01T02:47:52;1.25;;;0.75;;
13477;SDS011;12598;62.382;17.344;2023-08-01T02:48:56;1.10;;;0.60;;
13477;SDS011;12598;62.382;17.344;2023-08-01T02:49:58;1.00;;;0.60;;
13477;SDS011;12598;62.382;17.344;2023-08-01T02:51:00;1.15;;;0.60;;
13477;SDS011;12598;62.382;17.344;2023-08-01T02:52:02;1.27;;;0.60;;
13477;SDS011;12598;62.382;17.344;2023-08-01T02:53:06;0.60;;;0.47;;
13477;SDS011;12598;62.382;17.344;2023-08-01T02:54:07;1.23;;;0.75;;
13477;SDS011;12598;62.382;17.344;2023-08-01T02:55:09;0.73;;;0.73;;
13477;SDS011;12598;62.382;17.344;2023-08-01T02:56:11;1.38;;;0.50;;
13477;SDS011;12598;62.382;17.344;2023-08-01T02:57:13;2.03;;;0.73;;
13477;SDS011;12598;62.382;17.344;2023-08-01T02:58:15;1.58;;;0.60;;
13477;SDS011;12598;62.382;17.344;2023-08-01T02:59:19;1.13;;;0.77;;
13477;SDS011;12598;62.382;17.344;2023-08-01T03:00:21;0.70;;;0.50;;
13477;SDS011;12598;62.382;17.344;2023-08-01T03:01:23;2.25;;;0.50;;
13477;SDS011;12598;62.382;17.344;2023-08-01T03:02:25;0.60;;;0.52;;
13477;SDS011;12598;62.382;17.344;2023-08-01T03:03:29;1.55;;;0.50;;
13477;SDS011;12598;62.382;17.344;2023-08-01T03:04:31;1.27;;;0.65;;
13477;SDS011;12598;62.382;17.344;2023-08-01T03:05:47;0.90;;;0.50;;
13477;SDS011;12598;62.382;17.344;2023-08-01T03:06:49;0.52;;;0.47;;
13477;SDS011;12598;62.382;17.344;2023-08-01T03:07:51;0.93;;;0.60;;
13477;SDS011;12598;62.382;17.344;2023-08-01T03:08:53;1.50;;;0.60;;
13477;SDS011;12598;62.382;17.344;2023-08-01T03:09:55;0.95;;;0.70;;
13477;SDS011;12598;62.382;17.344;2023-08-01T03:10:57;1.23;;;0.73;;
13477;SDS011;12598;62.382;17.344;2023-08-01T03:11:59;0.55;;;0.40;;
13477;SDS011;12598;62.382;17.344;2023-08-01T03:13:01;1.80;;;0.63;;
13477;SDS011;12598;62.382;17.344;2023-08-01T03:14:03;1.55;;;0.57;;
13477;SDS011;12598;62.382;17.344;2023-08-01T03:15:05;1.25;;;0.80;;
13477;SDS011;12598;62.382;17.344;2023-08-01T03:16:10;1.60;;;0.70;;
13477;SDS011;12598;62.382;17.344;2023-08-01T03:17:12;1.77;;;0.60;;
13477;SDS011;12598;62.382;17.344;2023-08-01T03:18:14;0.75;;;0.52;;
13477;SDS011;12598;62.382;17.344;2023-08-01T03:19:16;1.20;;;0.60;;
13477;SDS011;12598;62.382;17.344;2023-08-01T03:20:18;1.73;;;0.50;;
13477;SDS011;12598;62.382;17.344;2023-08-01T03:21:20;0.93;;;0.50;;
13477;SDS011;12598;62.382;17.344;2023-08-01T03:22:22;1.00;;;0.55;;
13477;SDS011;12598;62.382;17.344;2023-08-01T03:23:24;0.95;;;0.50;;
13477;SDS011;12598;62.382;17.344;2023-08-01T03:24:26;0.75;;;0.47;;
13477;SDS011;12598;62.382;17.344;2023-08-01T03:25:28;1.95;;;0.65;;
13477;SDS011;12598;62.382;17.344;2023-08-01T03:26:30;1.63;;;0.80;;
13477;SDS011;12598;62.382;17.344;2023-08-01T03:27:33;1.25;;;0.60;;
13477;SDS011;12598;62.382;17.344;2023-08-01T03:28:35;2.25;;;0.63;;
13477;SDS011;12598;62.382;17.344;2023-08-01T03:29:39;2.28;;;0.63;;
13477;SDS011;12598;62.382;17.344;2023-08-01T03:30:41;0.93;;;0.43;;
13477;SDS011;12598;62.382;17.344;2023-08-01T03:31:43;0.90;;;0.60;;
13477;SDS011;12598;62.382;17.344;2023-08-01T03:32:45;1.67;;;0.93;;
13477;SDS011;12598;62.382;17.344;2023-08-01T03:33:47;1.15;;;0.55;;
13477;SDS011;12598;62.382;17.344;2023-08-01T03:34:49;2.55;;;0.85;;
13477;SDS011;12598;62.382;17.344;2023-08-01T03:35:51;1.52;;;0.80;;
13477;SDS011;12598;62.382;17.344;2023-08-01T03:36:53;1.52;;;1.00;;
13477;SDS011;12598;62.382;17.344;2023-08-01T03:37:55;1.80;;;0.80;;
13477;SDS011;12598;62.382;17.344;2023-08-01T03:38:57;1.52;;;0.60;;
13477;SDS011;12598;62.382;17.344;2023-08-01T03:39:59;1.38;;;0.75;;
13477;SDS011;12598;62.382;17.344;2023-08-01T03:41:01;1.80;;;0.90;;
13477;SDS011;12598;62.382;17.344;2023-08-01T03:42:03;1.33;;;0.75;;
13477;SDS011;12598;62.382;17.344;2023-08-01T03:43:05;1.55;;;1.00;;
13477;SDS011;12598;62.382;17.344;2023-08-01T03:44:08;1.95;;;0.68;;
13477;SDS011;12598;62.382;17.344;2023-08-01T03:45:09;0.75;;;0.60;;
13477;SDS011;12598;62.382;17.344;2023-08-01T03:46:11;1.80;;;0.80;;
13477;SDS011;12598;62.382;17.344;2023-08-01T03:47:13;1.45;;;0.77;;
13477;SDS011;12598;62.382;17.344;2023-08-01T03:48:15;1.30;;;0.80;;
13477;SDS011;12598;62.382;17.344;2023-08-01T03:49:18;1.25;;;0.90;;
13477;SDS011;12598;62.382;17.344;2023-08-01T03:50:20;1.55;;;0.80;;
13477;SDS011;12598;62.382;17.344;2023-08-01T03:51:23;2.05;;;1.10;;
13477;SDS011;12598;62.382;17.344;2023-08-01T03:52:25;0.90;;;0.68;;
13477;SDS011;12598;62.382;17.344;2023-08-01T03:53:27;0.93;;;0.73;;
13477;SDS011;12598;62.382;17.344;2023-08-01T03:54:30;1.40;;;0.95;;
13477;SDS011;12598;62.382;17.344;2023-08-01T03:55:32;0.90;;;0.80;;
13477;SDS011;12598;62.382;17.344;2023-08-01T03:56:35;1.50;;;0.90;;
13477;SDS011;12598;62.382;17.344;2023-08-01T03:57:37;1.70;;;0.80;;
13477;SDS011;12598;62.382;17.344;2023-08-01T03:58:40;0.73;;;0.68;;
13477;SDS011;12598;62.382;17.344;2023-08-01T03:59:43;1.25;;;0.80;;
13477;SDS011;12598;62.382;17.344;2023-08-01T04:00:45;1.52;;;0.77;;
13477;SDS011;12598;62.382;17.344;2023-08-01T04:01:47;0.93;;;0.75;;
13477;SDS011;12598;62.382;17.344;2023-08-01T04:02:49;1.02;;;0.70;;
13477;SDS011;12598;62.382;17.344;2023-08-01T04:03:52;1.38;;;0.80;;
13477;SDS011;12598;62.382;17.344;2023-08-01T04:04:54;0.80;;;0.55;;
13477;SDS011;12598;62.382;17.344;2023-08-01T04:05:56;1.08;;;0.60;;
13477;SDS011;12598;62.382;17.344;2023-08-01T04:06:57;1.90;;;0.93;;
13477;SDS011;12598;62.382;17.344;2023-08-01T04:07:59;1.25;;;0.65;;
13477;SDS011;12598;62.382;17.344;2023-08-01T04:09:01;0.90;;;0.60;;
13477;SDS011;12598;62.382;17.344;2023-08-01T04:10:03;1.73;;;0.90;;
13477;SDS011;12598;62.382;17.344;2023-08-01T04:11:06;1.60;;;0.80;;
13477;SDS011;12598;62.382;17.344;2023-08-01T04:12:08;2.47;;;0.82;;
13477;SDS011;12598;62.382;17.344;2023-08-01T04:13:10;1.02;;;0.77;;
13477;SDS011;12598;62.382;17.344;2023-08-01T04:14:12;1.92;;;0.90;;
13477;SDS011;12598;62.382;17.344;2023-08-01T04:15:13;1.02;;;0.70;;
13477;SDS011;12598;62.382;17.344;2023-08-01T04:16:15;1.83;;;0.80;;
13477;SDS011;12598;62.382;17.344;2023-08-01T04:17:17;1.40;;;0.80;;
13477;SDS011;12598;62.382;17.344;2023-08-01T04:18:19;2.28;;;0.70;;
13477;SDS011;12598;62.382;17.344;2023-08-01T04:19:21;1.00;;;0.70;;
13477;SDS011;12598;62.382;17.344;2023-08-01T04:20:23;1.30;;;0.50;;
13477;SDS011;12598;62.382;17.344;2023-08-01T04:21:25;2.33;;;0.95;;
13477;SDS011;12598;62.382;17.344;2023-08-01T04:22:27;1.33;;;0.70;;
13477;SDS011;12598;62.382;17.344;2023-08-01T04:23:29;2.80;;;0.90;;
13477;SDS011;12598;62.382;17.344;2023-08-01T04:24:31;1.23;;;0.93;;
13477;SDS011;12598;62.382;17.344;2023-08-01T04:25:32;1.98;;;0.88;;
13477;SDS011;12598;62.382;17.344;2023-08-01T04:26:34;1.27;;;0.77;;
13477;SDS011;12598;62.382;17.344;2023-08-01T04:27:39;1.35;;;0.85;;
13477;SDS011;12598;62.382;17.344;2023-08-01T04:28:40;1.38;;;0.88;;
13477;SDS011;12598;62.382;17.344;2023-08-01T04:29:42;2.33;;;0.90;;
13477;SDS011;12598;62.382;17.344;2023-08-01T04:30:48;1.48;;;0.88;;
13477;SDS011;12598;62.382;17.344;2023-08-01T04:31:51;1.58;;;0.73;;
13477;SDS011;12598;62.382;17.344;2023-08-01T04:32:53;2.15;;;1.00;;
13477;SDS011;12598;62.382;17.344;2023-08-01T04:33:55;2.00;;;1.05;;
13477;SDS011;12598;62.382;17.344;2023-08-01T04:34:56;1.98;;;1.10;;
13477;SDS011;12598;62.382;17.344;2023-08-01T04:35:59;1.95;;;0.85;;
13477;SDS011;12598;62.382;17.344;2023-08-01T04:37:01;2.50;;;1.30;;
13477;SDS011;12598;62.382;17.344;2023-08-01T04:38:03;1.58;;;0.90;;
13477;SDS011;12598;62.382;17.344;2023-08-01T04:39:04;1.02;;;0.93;;
13477;SDS011;12598;62.382;17.344;2023-08-01T04:40:07;1.58;;;0.98;;
13477;SDS011;12598;62.382;17.344;2023-08-01T04:41:09;2.30;;;1.02;;
13477;SDS011;12598;62.382;17.344;2023-08-01T04:42:11;2.28;;;1.10;;
13477;SDS011;12598;62.382;17.344;2023-08-01T04:43:13;1.80;;;1.00;;
13477;SDS011;12598;62.382;17.344;2023-08-01T04:44:15;2.38;;;1.10;;
13477;SDS011;12598;62.382;17.344;2023-08-01T04:45:17;1.25;;;0.80;;
13477;SDS011;12598;62.382;17.344;2023-08-01T04:46:19;1.95;;;0.98;;
13477;SDS011;12598;62.382;17.344;2023-08-01T04:47:21;1.52;;;1.10;;
13477;SDS011;12598;62.382;17.344;2023-08-01T04:48:23;1.63;;;1.00;;
13477;SDS011;12598;62.382;17.344;2023-08-01T04:49:25;3.88;;;0.88;;
13477;SDS011;12598;62.382;17.344;2023-08-01T04:50:27;1.55;;;0.98;;
13477;SDS011;12598;62.382;17.344;2023-08-01T04:51:29;1.90;;;1.20;;
13477;SDS011;12598;62.382;17.344;2023-08-01T04:52:30;3.15;;;0.93;;
13477;SDS011;12598;62.382;17.344;2023-08-01T04:53:32;1.85;;;0.93;;
13477;SDS011;12598;62.382;17.344;2023-08-01T04:54:34;1.27;;;0.88;;
13477;SDS011;12598;62.382;17.344;2023-08-01T04:55:36;2.00;;;0.80;;
13477;SDS011;12598;62.382;17.344;2023-08-01T04:56:38;2.17;;;1.15;;
13477;SDS011;12598;62.382;17.344;2023-08-01T04:57:40;2.83;;;1.10;;
13477;SDS011;12598;62.382;17.344;2023-08-01T04:58:42;1.63;;;0.90;;
13477;SDS011;12598;62.382;17.344;2023-08-01T04:59:44;3.15;;;1.10;;
13477;SDS011;12598;62.382;17.344;2023-08-01T05:00:46;1.35;;;0.90;;
13477;SDS011;12598;62.382;17.344;2023-08-01T05:01:48;1.42;;;0.93;;
13477;SDS011;12598;62.382;17.344;2023-08-01T05:02:50;1.60;;;0.80;;
13477;SDS011;12598;62.382;17.344;2023-08-01T05:03:52;1.85;;;0.80;;
13477;SDS011;12598;62.382;17.344;2023-08-01T05:04:54;1.85;;;0.73;;
13477;SDS011;12598;62.382;17.344;2023-08-01T05:05:56;2.40;;;1.00;;
13477;SDS011;12598;62.382;17.344;2023-08-01T05:06:58;1.10;;;1.00;;
13477;SDS011;12598;62.382;17.344;2023-08-01T05:07:59;1.83;;;1.08;;
13477;SDS011;12598;62.382;17.344;2023-08-01T05:09:01;1.80;;;1.00;;
13477;SDS011;12598;62.382;17.344;2023-08-01T05:10:04;0.93;;;0.68;;
13477;SDS011;12598;62.382;17.344;2023-08-01T05:11:06;1.67;;;1.00;;
13477;SDS011;12598;62.382;17.344;2023-08-01T05:12:08;1.15;;;0.75;;
13477;SDS011;12598;62.382;17.344;2023-08-01T05:13:10;1.30;;;1.20;;
13477;SDS011;12598;62.382;17.344;2023-08-01T05:14:12;1.35;;;1.00;;
13477;SDS011;12598;62.382;17.344;2023-08-01T05:15:14;1.33;;;0.93;;
13477;SDS011;12598;62.382;17.344;2023-08-01T05:16:17;0.98;;;0.70;;
13477;SDS011;12598;62.382;17.344;2023-08-01T05:17:19;1.60;;;0.80;;
13477;SDS011;12598;62.382;17.344;2023-08-01T05:18:21;1.25;;;1.00;;
13477;SDS011;12598;62.382;17.344;2023-08-01T05:19:23;1.35;;;0.80;;
13477;SDS011;12598;62.382;17.344;2023-08-01T05:20:25;1.92;;;1.10;;
13477;SDS011;12598;62.382;17.344;2023-08-01T05:21:32;2.70;;;1.10;;
13477;SDS011;12598;62.382;17.344;2023-08-01T05:22:34;2.05;;;0.90;;
13477;SDS011;12598;62.382;17.344;2023-08-01T05:23:36;1.88;;;0.88;;
13477;SDS011;12598;62.382;17.344;2023-08-01T05:24:38;1.40;;;1.10;;
13477;SDS011;12598;62.382;17.344;2023-08-01T05:25:40;1.10;;;0.75;;
13477;SDS011;12598;62.382;17.344;2023-08-01T05:26:42;1.63;;;0.88;;
13477;SDS011;12598;62.382;17.344;2023-08-01T05:27:44;1.45;;;0.88;;
13477;SDS011;12598;62.382;17.344;2023-08-01T05:28:46;2.10;;;0.90;;
13477;SDS011;12598;62.382;17.344;2023-08-01T05:29:48;0.88;;;0.80;;
13477;SDS011;12598;62.382;17.344;2023-08-01T05:30:50;0.98;;;0.80;;
13477;SDS011;12598;62.382;17.344;2023-08-01T05:31:51;2.67;;;0.63;;
13477;SDS011;12598;62.382;17.344;2023-08-01T05:32:53;1.25;;;0.90;;
13477;SDS011;12598;62.382;17.344;2023-08-01T05:33:55;1.08;;;0.90;;
13477;SDS011;12598;62.382;17.344;2023-08-01T05:34:57;0.75;;;0.70;;
13477;SDS011;12598;62.382;17.344;2023-08-01T05:35:59;1.00;;;0.82;;
13477;SDS011;12598;62.382;17.344;2023-08-01T05:37:01;1.00;;;0.68;;
13477;SDS011;12598;62.382;17.344;2023-08-01T05:38:03;1.98;;;0.88;;
13477;SDS011;12598;62.382;17.344;2023-08-01T05:39:05;1.48;;;0.80;;
13477;SDS011;12598;62.382;17.344;2023-08-01T05:40:07;1.48;;;0.85;;
13477;SDS011;12598;62.382;17.344;2023-08-01T05:41:09;2.00;;;0.63;;
13477;SDS011;12598;62.382;17.344;2023-08-01T05:42:11;1.13;;;1.00;;
13477;SDS011;12598;62.382;17.344;2023-08-01T05:43:13;1.42;;;0.73;;
13477;SDS011;12598;62.382;17.344;2023-08-01T05:44:15;1.90;;;1.00;;
13477;SDS011;12598;62.382;17.344;2023-08-01T05:45:17;1.20;;;0.77;;
13477;SDS011;12598;62.382;17.344;2023-08-01T05:46:19;2.25;;;1.00;;
13477;SDS011;12598;62.382;17.344;2023-08-01T05:47:21;1.20;;;0.80;;
13477;SDS011;12598;62.382;17.344;2023-08-01T05:48:24;2.58;;;0.90;;
13477;SDS011;12598;62.382;17.344;2023-08-01T05:49:26;1.05;;;0.75;;
13477;SDS011;12598;62.382;17.344;2023-08-01T05:50:29;1.42;;;0.80;;
13477;SDS011;12598;62.382;17.344;2023-08-01T05:51:31;1.65;;;0.90;;
13477;SDS011;12598;62.382;17.344;2023-08-01T05:52:33;2.28;;;0.90;;
13477;SDS011;12598;62.382;17.344;2023-08-01T05:53:35;1.85;;;1.15;;
13477;SDS011;12598;62.382;17.344;2023-08-01T05:54:37;1.00;;;0.60;;
13477;SDS011;12598;62.382;17.344;2023-08-01T05:55:39;1.42;;;1.15;;
13477;SDS011;12598;62.382;17.344;2023-08-01T05:56:41;1.95;;;1.17;;
13477;SDS011;12598;62.382;17.344;2023-08-01T05:57:44;1.33;;;0.90;;
13477;SDS011;12598;62.382;17.344;2023-08-01T05:58:46;1.35;;;0.80;;
13477;SDS011;12598;62.382;17.344;2023-08-01T05:59:48;2.42;;;0.98;;
13477;SDS011;12598;62.382;17.344;2023-08-01T06:00:50;1.92;;;0.98;;
13477;SDS011;12598;62.382;17.344;2023-08-01T06:01:52;2.35;;;1.00;;
13477;SDS011;12598;62.382;17.344;2023-08-01T06:02:54;1.63;;;0.93;;
13477;SDS011;12598;62.382;17.344;2023-08-01T06:03:56;1.27;;;0.80;;
13477;SDS011;12598;62.382;17.344;2023-08-01T06:04:58;1.05;;;0.90;;
13477;SDS011;12598;62.382;17.344;2023-08-01T06:06:00;1.73;;;1.00;;
13477;SDS011;12598;62.382;17.344;2023-08-01T06:07:02;1.63;;;1.08;;
13477;SDS011;12598;62.382;17.344;2023-08-01T06:08:07;2.83;;;0.88;;
13477;SDS011;12598;62.382;17.344;2023-08-01T06:09:09;1.65;;;1.00;;
13477;SDS011;12598;62.382;17.344;2023-08-01T06:10:11;1.63;;;0.90;;